Latest Weather Observations for Mount Lofty

IDS60901

Issued at 12:51 am CST Monday 27 June 2016 (issued every 10 minutes, with the page automatically refreshed every 10 minutes)

About weather observations | Map of Adelaide area stations | Latest observations for Adelaide area | Other Formats
Station Details ID: 023842 Name: MOUNT LOFTY Lat: -34.98 Lon: 138.71 Height: 685.0 m
Data from the previous 72 hours. | See also: Recent months at Mount Lofty
Date/Time
CST
Temp
°C
App
Temp
°C
Dew
Point
°C
Rel
Hum
%
Delta-T
°C
Wind Press
QNH
hPa
Press
MSL
hPa
Rain since
9am
mm
Dir  Spd
km/h
Gust
km/h
Spd
kts
Gust
kts
27/12:30am 5.2 1.6 4.8 97 0.2 NW 13 20 7 11 - - 1.0
27/12:00am 5.1 1.4 4.7 97 0.2 NW 13 19 7 10 - - 0.2
 
Date/Time
CST
Temp
°C
App
Temp
°C
Dew
Point
°C
Rel
Hum
%
Delta-T
°C
Wind Press
QNH
hPa
Press
MSL
hPa
Rain since
9am
mm
Dir  Spd
km/h
Gust
km/h
Spd
kts
Gust
kts
26/11:30pm 5.0 1.3 4.6 97 0.2 WNW 13 20 7 11 - - 0.2
26/11:00pm 5.0 1.3 4.6 97 0.2 WNW 13 19 7 10 - - 0.0
26/10:30pm 5.1 1.4 4.7 97 0.2 WNW 13 20 7 11 - - 0.0
26/10:00pm 5.5 1.5 5.1 97 0.2 NW 15 24 8 13 - - 0.0
26/09:30pm 5.3 1.6 4.7 96 0.3 NW 13 22 7 12 - - 0.0
26/09:00pm 5.3 1.6 4.6 95 0.3 NW 13 24 7 13 - - 0.0
26/08:30pm 5.1 1.4 4.4 95 0.3 NW 13 20 7 11 - - 0.0
26/08:00pm 5.2 1.9 4.5 95 0.3 NW 11 20 6 11 - - 0.0
26/07:30pm 5.3 1.6 4.6 95 0.3 NW 13 20 7 11 - - 0.0
26/07:00pm 5.6 2.0 4.9 95 0.3 NW 13 20 7 11 - - 0.0
26/06:30pm 5.5 2.6 4.8 95 0.3 NW 9 17 5 9 - - 0.0
26/06:00pm 5.4 2.5 4.7 95 0.3 NW 9 17 5 9 - - 0.0
26/05:30pm 5.3 2.0 4.3 93 0.4 NW 11 19 6 10 - - 0.0
26/05:00pm 5.4 2.3 3.6 88 0.8 NW 9 19 5 10 - - 0.0
26/04:30pm 5.7 2.5 3.0 83 1.2 WNW 9 17 5 9 - - 0.0
26/04:00pm 5.6 2.4 3.1 84 1.1 WNW 9 17 5 9 - - 0.0
26/03:30pm 5.8 1.6 4.0 88 0.8 WNW 15 28 8 15 - - 0.0
26/03:00pm 6.4 2.7 4.2 86 1.0 WNW 13 24 7 13 - - 0.0
26/02:30pm 6.7 3.2 3.7 81 1.3 WNW 11 22 6 12 - - 0.0
26/02:00pm 6.6 2.3 3.0 78 1.6 WNW 15 24 8 13 - - 0.0
26/01:30pm 7.0 2.7 3.3 77 1.6 WNW 15 24 8 13 - - 0.0
26/01:00pm 7.3 3.4 3.2 75 1.8 WNW 13 22 7 12 - - 0.0
26/12:30pm 7.4 3.8 2.7 72 2.0 WNW 11 24 6 13 - - 0.0
26/12:00pm 6.7 3.5 3.3 79 1.5 WNW 9 20 5 11 - - 0.0
26/11:30am 6.6 2.3 3.4 80 1.4 NW 15 28 8 15 - - 0.0
26/11:00am 7.4 3.8 2.7 72 2.0 NW 11 19 6 10 - - 0.0
26/10:30am 5.7 2.9 3.4 85 1.0 NNW 7 13 4 7 - - 0.0
26/10:00am 4.8 1.0 3.8 93 0.4 NW 13 22 7 12 - - 0.0
26/09:30am 5.1 1.5 3.1 87 0.9 NW 11 19 6 10 - - 0.0
26/09:00am 5.1 1.8 2.6 84 1.1 NW 9 19 5 10 - - 0.2
26/08:30am 4.9 1.2 2.6 85 1.0 NW 11 17 6 9 - - 0.2
26/08:00am 4.9 1.2 2.6 85 1.0 NW 11 19 6 10 - - 0.2
26/07:30am 4.8 1.6 3.0 88 0.8 NW 9 19 5 10 - - 0.2
26/07:00am 4.8 1.6 3.3 90 0.6 NW 9 17 5 9 - - 0.2
26/06:30am 4.9 2.1 3.4 90 0.6 NW 7 15 4 8 - - 0.2
26/06:00am 5.0 1.8 3.3 89 0.7 NNW 9 17 5 9 - - 0.2
26/05:30am 4.8 1.2 3.1 89 0.7 NW 11 19 6 10 - - 0.2
26/05:00am 4.9 1.3 3.2 89 0.7 NW 11 22 6 12 - - 0.2
26/04:30am 5.1 0.7 2.8 85 1.0 NW 15 26 8 14 - - 0.2
26/04:00am 5.4 1.3 2.2 80 1.4 NW 13 22 7 12 - - 0.2
26/03:30am 5.4 1.3 2.1 79 1.4 NW 13 24 7 13 - - 0.2
26/03:00am 5.5 2.2 2.2 79 1.4 NW 9 19 5 10 - - 0.2
26/02:30am 5.7 1.9 2.0 77 1.6 NNW 11 20 6 11 - - 0.2
26/02:00am 5.7 2.3 2.0 77 1.6 NNW 9 20 5 11 - - 0.2
26/01:30am 5.6 1.9 2.3 79 1.4 NNW 11 22 6 12 - - 0.2
26/01:00am 5.5 2.2 2.5 81 1.3 NNW 9 17 5 9 - - 0.2
26/12:30am 5.5 2.2 2.7 82 1.2 NNW 9 15 5 8 - - 0.2
26/12:00am 5.6 2.4 3.1 84 1.1 NNW 9 17 5 9 - - 0.2
 
Date/Time
CST
Temp
°C
App
Temp
°C
Dew
Point
°C
Rel
Hum
%
Delta-T
°C
Wind Press
QNH
hPa
Press
MSL
hPa
Rain since
9am
mm
Dir  Spd
km/h
Gust
km/h
Spd
kts
Gust
kts
25/11:30pm 5.4 2.7 3.9 90 0.7 NNW 7 13 4 7 - - 0.2
25/11:00pm 5.5 2.9 4.0 90 0.7 NNW 7 13 4 7 - - 0.2
25/10:30pm 5.5 3.0 3.8 89 0.7 N 6 9 3 5 - - 0.2
25/10:00pm 5.3 2.6 3.8 90 0.7 N 7 13 4 7 - - 0.2
25/09:30pm 5.3 3.2 4.1 92 0.5 NE 4 7 2 4 - - 0.2
25/09:00pm 5.4 3.7 4.1 91 0.6 ENE 2 6 1 3 - - 0.2
25/08:30pm 5.6 3.5 4.1 90 0.7 NNW 4 7 2 4 - - 0.2
25/08:00pm 5.7 3.2 4.0 89 0.8 NW 6 9 3 5 - - 0.2
25/07:30pm 5.7 3.0 3.9 88 0.8 NW 7 11 4 6 - - 0.2
25/07:00pm 5.7 3.0 3.7 87 0.9 NW 7 13 4 7 - - 0.2
25/06:30pm 5.8 3.3 3.5 85 1.0 N 6 11 3 6 - - 0.2
25/06:00pm 5.8 4.0 3.6 86 1.0 N 2 6 1 3 - - 0.2
25/05:30pm 5.8 3.7 4.0 88 0.8 NNW 4 6 2 3 - - 0.2
25/05:00pm 5.9 3.8 4.1 88 0.8 NW 4 6 2 3 - - 0.2
25/04:30pm 6.1 4.0 4.1 87 0.9 NW 4 6 2 3 - - 0.2
25/04:00pm 6.1 3.6 3.9 86 1.0 N 6 7 3 4 - - 0.2
25/03:30pm 6.2 3.7 4.0 86 1.0 NNW 6 9 3 5 - - 0.2
25/03:00pm 6.4 4.0 4.2 86 1.0 NNW 6 11 3 6 - - 0.2
25/02:30pm 6.2 4.2 4.4 88 0.8 NNW 4 9 2 5 - - 0.2
25/02:00pm 6.0 3.5 3.8 86 1.0 NNW 6 9 3 5 - - 0.2
25/01:30pm 5.9 3.5 4.1 88 0.8 NNW 6 11 3 6 - - 0.2
25/01:00pm 6.0 3.4 4.3 89 0.8 NW 7 13 4 7 - - 0.2
25/12:30pm 6.1 3.8 4.6 90 0.7 NW 6 11 3 6 - - 0.2
25/12:00pm 6.3 3.7 4.3 87 0.9 NW 7 13 4 7 - - 0.2
25/11:30am 6.7 4.2 4.7 87 0.9 NW 7 11 4 6 - - 0.2
25/11:00am 6.2 3.7 4.7 90 0.7 NNW 7 13 4 7 - - 0.2
25/10:30am 5.7 3.3 5.1 96 0.3 NNW 7 11 4 6 - - 0.2
25/10:00am 5.4 2.9 5.0 97 0.2 NNW 7 11 4 6 - - 0.2
25/09:30am 4.9 2.5 4.5 97 0.2 NW 6 11 3 6 - - 0.2
25/09:00am 4.9 2.4 4.5 97 0.2 NW 7 13 4 7 - - 0.2
25/08:30am 4.5 1.9 4.2 98 0.1 NNW 7 15 4 8 - - 0.2
25/08:00am 4.1 1.4 3.7 97 0.2 NNW 7 9 4 5 - - 0.2
25/07:30am 3.9 1.2 3.5 97 0.2 N 7 11 4 6 - - 0.2
25/07:00am 3.7 0.9 3.3 97 0.2 N 7 11 4 6 - - 0.2
25/06:30am 3.5 2.0 2.9 96 0.3 CALM 0 6 0 3 - - 0.2
25/06:00am 3.3 1.7 2.7 96 0.3 CALM 0 0 0 0 - - 0.2
25/05:30am 3.5 1.6 2.9 96 0.3 WNW 2 4 1 2 - - 0.2
25/05:00am 3.9 1.7 3.3 96 0.3 WNW 4 4 2 2 - - 0.2
25/04:30am 3.9 1.7 3.3 96 0.3 NW 4 4 2 2 - - 0.2
25/04:00am 4.0 1.8 3.4 96 0.3 NW 4 4 2 2 - - 0.2
25/03:30am 4.0 1.8 3.3 95 0.3 NW 4 6 2 3 - - 0.2
25/03:00am 4.0 2.1 3.1 94 0.4 W 2 4 1 2 - - 0.2
25/02:30am 4.2 2.4 3.2 93 0.4 WSW 2 6 1 3 - - 0.2
25/02:00am 4.5 2.0 3.5 93 0.4 WSW 6 11 3 6 - - 0.2
25/01:30am 4.5 2.3 3.3 92 0.5 WSW 4 9 2 5 - - 0.2
25/01:00am 4.4 1.8 3.2 92 0.5 WSW 6 7 3 4 - - 0.2
25/12:30am 4.3 1.6 2.7 89 0.7 SW 6 9 3 5 - - 0.2
25/12:00am 4.4 1.7 2.8 89 0.7 SW 6 9 3 5 - - 0.2
 
Date/Time
CST
Temp
°C
App
Temp
°C
Dew
Point
°C
Rel
Hum
%
Delta-T
°C
Wind Press
QNH
hPa
Press
MSL
hPa
Rain since
9am
mm
Dir  Spd
km/h
Gust
km/h
Spd
kts
Gust
kts
24/11:30pm 4.5 1.6 2.8 89 0.7 WSW 7 17 4 9 - - 0.2
24/11:00pm 4.7 1.9 2.9 88 0.8 WSW 7 15 4 8 - - 0.2
24/10:30pm 4.4 1.7 2.8 89 0.7 SW 6 11 3 6 - - 0.2
24/10:00pm 4.2 1.5 2.7 90 0.6 WSW 6 9 3 5 - - 0.2
24/09:30pm 4.3 1.5 2.3 87 0.8 WSW 6 11 3 6 - - 0.2
24/09:00pm 4.8 1.9 2.5 85 1.0 WSW 7 15 4 8 - - 0.2
24/08:30pm 4.8 1.4 2.0 82 1.2 WSW 9 17 5 9 - - 0.2
24/08:00pm 4.9 1.5 2.1 82 1.2 WSW 9 15 5 8 - - 0.2
24/07:30pm 4.8 1.4 2.0 82 1.2 SW 9 17 5 9 - - 0.2
24/07:00pm 4.6 1.3 2.6 87 0.8 WSW 9 17 5 9 - - 0.2
24/06:30pm 4.9 2.2 3.7 92 0.5 WSW 7 20 4 11 - - 0.2
24/06:00pm 4.7 2.0 3.7 93 0.4 W 7 15 4 8 - - 0.2
24/05:30pm 4.6 1.8 3.3 91 0.6 W 7 13 4 7 - - 0.2
24/05:00pm 5.0 2.2 3.3 89 0.7 WSW 7 15 4 8 - - 0.2
24/04:30pm 5.3 1.8 3.3 87 0.9 WSW 11 22 6 12 - - 0.2
24/04:00pm 6.0 1.7 3.2 82 1.2 WSW 15 30 8 16 - - 0.2
24/03:30pm 5.6 2.5 3.4 86 1.0 W 9 17 5 9 - - 0.2
24/03:00pm 6.4 3.1 4.7 89 0.8 WSW 11 20 6 11 - - 0.2
24/02:30pm 5.1 2.3 3.4 89 0.7 WSW 7 15 4 8 - - 0.2
24/02:00pm 6.0 2.0 3.0 81 1.3 WSW 13 30 7 16 - - 0.0
24/01:30pm 6.3 2.3 3.1 80 1.4 W 13 24 7 13 - - 0.0
24/01:00pm 5.8 2.2 3.1 83 1.2 W 11 24 6 13 - - 0.0
24/12:30pm 5.0 0.7 3.0 87 0.9 WSW 15 32 8 17 - - 0.0
24/12:00pm 6.1 1.7 2.7 79 1.5 W 15 28 8 15 - - 0.0
24/11:30am 5.2 0.0 2.6 83 1.1 WSW 19 35 10 19 - - 0.0
24/11:00am 4.4 -0.4 2.6 88 0.8 WSW 17 35 9 19 - - 0.0
24/10:30am 5.5 0.8 0.9 72 1.9 W 15 33 8 18 - - 0.0
24/10:00am 5.1 0.1 1.2 76 1.6 W 17 35 9 19 - - 0.0
24/09:30am 4.5 0.0 2.0 84 1.0 W 15 28 8 15 - - 0.0
24/09:00am 3.8 -0.7 2.2 89 0.7 W 15 32 8 17 - - 25.8
24/08:30am 3.3 -0.8 2.0 91 0.5 W 13 24 7 13 - - 25.8
24/08:00am 3.1 -2.2 1.6 90 0.6 W 19 35 10 19 - - 25.8
24/07:30am 2.7 -2.7 1.4 91 0.5 W 19 39 10 21 - - 25.8
24/07:00am 3.2 -2.1 1.6 89 0.7 W 19 33 10 18 - - 25.6
24/06:30am 3.9 -1.6 0.8 80 1.2 W 19 39 10 21 - - 25.6
24/06:00am 4.0 -1.6 1.0 81 1.2 W 20 37 11 20 - - 25.6
24/05:30am 3.8 -1.9 0.7 80 1.2 W 20 39 11 21 - - 25.6
24/05:00am 3.9 -0.8 0.9 81 1.2 W 15 30 8 16 - - 25.6
24/04:30am 3.7 -1.6 1.7 87 0.8 W 19 41 10 22 - - 25.6
24/04:00am 3.1 -1.7 2.5 96 0.2 W 17 33 9 18 - - 25.6
24/03:30am 3.4 -1.9 3.1 98 0.1 W 20 35 11 19 - - 25.6
24/03:00am 3.2 -1.9 2.9 98 0.1 W 19 33 10 18 - - 25.6
24/02:30am 3.0 -2.7 2.7 98 0.1 W 22 44 12 24 - - 25.2
24/02:00am 3.1 -2.3 2.5 96 0.2 W 20 48 11 26 - - 24.2
24/01:30am 3.9 -1.3 3.5 97 0.2 W 20 33 11 18 - - 23.6
24/01:00am 3.7 -2.7 3.1 96 0.3 W 26 50 14 27 - - 23.6
24/12:57am 3.7 -3.1 3.1 96 0.3 W 28 63 15 34 - - 23.6

Latest Capital City Observations: Canberra | Sydney | Melbourne | Brisbane | Adelaide | Perth | Hobart | Darwin

Other Formats:

Comma delimited format used in spreadsheet applications
http://www.bom.gov.au/fwo/IDS60901/IDS60901.95678.axf

JavaScript Object Notation format (JSON) in row-major order
http://www.bom.gov.au/fwo/IDS60901/IDS60901.95678.json